sensor_id;sensor_type;location;lat;lon;timestamp;temperature;humidity
48535;DHT22;34323;52.022;5.686;2023-05-19T00:01:10;15.10;99.90
48535;DHT22;34323;52.022;5.686;2023-05-19T00:03:40;15.00;99.90
48535;DHT22;34323;52.022;5.686;2023-05-19T00:06:13;15.00;99.90
48535;DHT22;34323;52.022;5.686;2023-05-19T00:08:39;14.80;99.90
48535;DHT22;34323;52.022;5.686;2023-05-19T00:11:05;14.80;99.90
48535;DHT22;34323;52.022;5.686;2023-05-19T00:13:31;14.80;99.90
48535;DHT22;34323;52.022;5.686;2023-05-19T00:15:57;14.70;99.90
48535;DHT22;34323;52.022;5.686;2023-05-19T00:18:22;14.60;99.90
48535;DHT22;34323;52.022;5.686;2023-05-19T00:20:48;14.50;99.90
48535;DHT22;34323;52.022;5.686;2023-05-19T00:23:14;14.50;99.90
48535;DHT22;34323;52.022;5.686;2023-05-19T00:25:39;14.50;99.90
48535;DHT22;34323;52.022;5.686;2023-05-19T00:28:05;14.50;99.90
48535;DHT22;34323;52.022;5.686;2023-05-19T00:30:31;14.50;99.90
48535;DHT22;34323;52.022;5.686;2023-05-19T00:32:56;14.50;99.90
48535;DHT22;34323;52.022;5.686;2023-05-19T00:35:23;14.50;99.90
48535;DHT22;34323;52.022;5.686;2023-05-19T00:37:48;14.50;99.90
48535;DHT22;34323;52.022;5.686;2023-05-19T00:40:14;14.50;99.90
48535;DHT22;34323;52.022;5.686;2023-05-19T00:42:41;14.50;99.90
48535;DHT22;34323;52.022;5.686;2023-05-19T00:45:07;14.50;99.90
48535;DHT22;34323;52.022;5.686;2023-05-19T00:47:32;14.60;99.90
48535;DHT22;34323;52.022;5.686;2023-05-19T00:49:58;14.50;99.90
48535;DHT22;34323;52.022;5.686;2023-05-19T00:52:24;14.50;99.90
48535;DHT22;34323;52.022;5.686;2023-05-19T00:54:51;14.60;99.90
48535;DHT22;34323;52.022;5.686;2023-05-19T00:57:17;14.60;99.90
48535;DHT22;34323;52.022;5.686;2023-05-19T00:59:43;14.60;99.90
48535;DHT22;34323;52.022;5.686;2023-05-19T01:02:08;14.50;99.90
48535;DHT22;34323;52.022;5.686;2023-05-19T01:04:35;14.50;99.90
48535;DHT22;34323;52.022;5.686;2023-05-19T01:07:02;14.60;99.90
48535;DHT22;34323;52.022;5.686;2023-05-19T01:09:27;14.50;99.90
48535;DHT22;34323;52.022;5.686;2023-05-19T01:11:54;14.40;99.90
48535;DHT22;34323;52.022;5.686;2023-05-19T01:14:20;14.40;99.90
48535;DHT22;34323;52.022;5.686;2023-05-19T01:16:52;14.30;99.90
48535;DHT22;34323;52.022;5.686;2023-05-19T01:19:58;14.30;99.90
48535;DHT22;34323;52.022;5.686;2023-05-19T01:26:08;14.10;99.90
48535;DHT22;34323;52.022;5.686;2023-05-19T01:31:22;13.90;99.90
48535;DHT22;34323;52.022;5.686;2023-05-19T01:33:51;14.00;99.90
48535;DHT22;34323;52.022;5.686;2023-05-19T01:36:18;13.90;99.90
48535;DHT22;34323;52.022;5.686;2023-05-19T01:38:45;14.00;99.90
48535;DHT22;34323;52.022;5.686;2023-05-19T01:41:13;14.00;99.90
48535;DHT22;34323;52.022;5.686;2023-05-19T01:43:39;14.00;99.90
48535;DHT22;34323;52.022;5.686;2023-05-19T01:46:05;13.90;99.90
48535;DHT22;34323;52.022;5.686;2023-05-19T01:48:32;14.00;99.90
48535;DHT22;34323;52.022;5.686;2023-05-19T01:50:58;13.80;99.90
48535;DHT22;34323;52.022;5.686;2023-05-19T01:53:24;13.70;99.90
48535;DHT22;34323;52.022;5.686;2023-05-19T01:55:52;13.70;99.90
48535;DHT22;34323;52.022;5.686;2023-05-19T01:58:35;13.50;99.90
48535;DHT22;34323;52.022;5.686;2023-05-19T02:12:33;13.10;99.90
48535;DHT22;34323;52.022;5.686;2023-05-19T02:17:26;13.00;99.90
48535;DHT22;34323;52.022;5.686;2023-05-19T02:19:53;13.10;99.90
48535;DHT22;34323;52.022;5.686;2023-05-19T02:22:19;13.10;99.90
48535;DHT22;34323;52.022;5.686;2023-05-19T02:24:44;13.30;99.90
48535;DHT22;34323;52.022;5.686;2023-05-19T02:27:12;13.40;99.90
48535;DHT22;34323;52.022;5.686;2023-05-19T02:29:37;13.50;99.90
48535;DHT22;34323;52.022;5.686;2023-05-19T02:32:03;13.40;99.90
48535;DHT22;34323;52.022;5.686;2023-05-19T02:34:28;13.40;99.90
48535;DHT22;34323;52.022;5.686;2023-05-19T02:36:54;13.50;99.90
48535;DHT22;34323;52.022;5.686;2023-05-19T02:39:20;13.50;99.90
48535;DHT22;34323;52.022;5.686;2023-05-19T02:41:46;13.40;99.90
48535;DHT22;34323;52.022;5.686;2023-05-19T02:44:11;13.30;99.90
48535;DHT22;34323;52.022;5.686;2023-05-19T02:46:37;13.30;99.90
48535;DHT22;34323;52.022;5.686;2023-05-19T02:49:02;13.20;99.90
48535;DHT22;34323;52.022;5.686;2023-05-19T02:51:28;13.30;99.90
48535;DHT22;34323;52.022;5.686;2023-05-19T02:53:53;13.30;99.90
48535;DHT22;34323;52.022;5.686;2023-05-19T02:56:19;13.40;99.90
48535;DHT22;34323;52.022;5.686;2023-05-19T02:58:46;13.40;99.90
48535;DHT22;34323;52.022;5.686;2023-05-19T03:01:11;13.20;99.90
48535;DHT22;34323;52.022;5.686;2023-05-19T03:03:38;13.30;99.90
48535;DHT22;34323;52.022;5.686;2023-05-19T03:06:03;13.30;99.90
48535;DHT22;34323;52.022;5.686;2023-05-19T03:08:33;13.30;99.90
48535;DHT22;34323;52.022;5.686;2023-05-19T03:10:59;13.40;99.90
48535;DHT22;34323;52.022;5.686;2023-05-19T03:13:25;13.20;99.90
48535;DHT22;34323;52.022;5.686;2023-05-19T03:15:50;13.30;99.90
48535;DHT22;34323;52.022;5.686;2023-05-19T03:18:16;13.40;99.90
48535;DHT22;34323;52.022;5.686;2023-05-19T03:20:41;13.40;99.90
48535;DHT22;34323;52.022;5.686;2023-05-19T03:23:09;13.50;99.90
48535;DHT22;34323;52.022;5.686;2023-05-19T03:25:34;13.40;99.90
48535;DHT22;34323;52.022;5.686;2023-05-19T03:28:00;13.30;99.90
48535;DHT22;34323;52.022;5.686;2023-05-19T03:30:26;13.40;99.90
48535;DHT22;34323;52.022;5.686;2023-05-19T03:32:51;13.30;99.90
48535;DHT22;34323;52.022;5.686;2023-05-19T03:35:17;13.10;99.90
48535;DHT22;34323;52.022;5.686;2023-05-19T03:37:43;13.10;99.90
48535;DHT22;34323;52.022;5.686;2023-05-19T03:40:08;13.20;99.90
48535;DHT22;34323;52.022;5.686;2023-05-19T03:42:35;13.20;99.90
48535;DHT22;34323;52.022;5.686;2023-05-19T03:45:01;13.30;99.90
48535;DHT22;34323;52.022;5.686;2023-05-19T03:47:26;13.30;99.90
48535;DHT22;34323;52.022;5.686;2023-05-19T03:49:52;13.40;99.90
48535;DHT22;34323;52.022;5.686;2023-05-19T03:52:17;13.30;99.90
48535;DHT22;34323;52.022;5.686;2023-05-19T03:54:43;13.30;99.90
48535;DHT22;34323;52.022;5.686;2023-05-19T03:57:09;13.20;99.90
48535;DHT22;34323;52.022;5.686;2023-05-19T03:59:35;13.10;99.90
48535;DHT22;34323;52.022;5.686;2023-05-19T04:02:02;13.00;99.90
48535;DHT22;34323;52.022;5.686;2023-05-19T04:04:27;12.90;99.90
48535;DHT22;34323;52.022;5.686;2023-05-19T04:06:53;12.90;99.90
48535;DHT22;34323;52.022;5.686;2023-05-19T04:09:19;12.90;99.90
48535;DHT22;34323;52.022;5.686;2023-05-19T04:11:44;13.00;99.90
48535;DHT22;34323;52.022;5.686;2023-05-19T04:14:10;13.10;99.90
48535;DHT22;34323;52.022;5.686;2023-05-19T04:16:36;13.00;99.90
48535;DHT22;34323;52.022;5.686;2023-05-19T04:19:01;12.90;99.90
48535;DHT22;34323;52.022;5.686;2023-05-19T04:21:27;13.10;99.90
48535;DHT22;34323;52.022;5.686;2023-05-19T04:23:52;13.10;99.90
48535;DHT22;34323;52.022;5.686;2023-05-19T04:26:18;13.10;99.90
48535;DHT22;34323;52.022;5.686;2023-05-19T04:28:46;13.20;99.90
48535;DHT22;34323;52.022;5.686;2023-05-19T04:31:13;13.40;99.90
48535;DHT22;34323;52.022;5.686;2023-05-19T04:33:39;13.40;99.90
48535;DHT22;34323;52.022;5.686;2023-05-19T04:36:06;13.50;99.90
48535;DHT22;34323;52.022;5.686;2023-05-19T04:38:35;13.60;99.90
48535;DHT22;34323;52.022;5.686;2023-05-19T04:41:02;13.60;99.90
48535;DHT22;34323;52.022;5.686;2023-05-19T04:43:28;13.50;99.90
48535;DHT22;34323;52.022;5.686;2023-05-19T04:45:54;13.40;99.90
48535;DHT22;34323;52.022;5.686;2023-05-19T04:48:20;13.40;99.90
48535;DHT22;34323;52.022;5.686;2023-05-19T04:50:46;13.40;99.90
48535;DHT22;34323;52.022;5.686;2023-05-19T04:53:13;13.50;99.90
48535;DHT22;34323;52.022;5.686;2023-05-19T04:55:39;13.60;99.90
48535;DHT22;34323;52.022;5.686;2023-05-19T04:58:04;13.70;99.90
48535;DHT22;34323;52.022;5.686;2023-05-19T05:00:31;13.60;99.90
48535;DHT22;34323;52.022;5.686;2023-05-19T05:02:57;13.70;99.90
48535;DHT22;34323;52.022;5.686;2023-05-19T05:05:22;13.80;99.90
48535;DHT22;34323;52.022;5.686;2023-05-19T05:07:49;13.80;99.90
48535;DHT22;34323;52.022;5.686;2023-05-19T05:10:14;13.80;99.90
48535;DHT22;34323;52.022;5.686;2023-05-19T05:12:40;13.90;99.90
48535;DHT22;34323;52.022;5.686;2023-05-19T05:15:06;13.80;99.90
48535;DHT22;34323;52.022;5.686;2023-05-19T05:17:33;13.80;99.90
48535;DHT22;34323;52.022;5.686;2023-05-19T05:20:00;13.70;99.90
48535;DHT22;34323;52.022;5.686;2023-05-19T05:22:26;13.70;99.90
48535;DHT22;34323;52.022;5.686;2023-05-19T05:24:52;13.70;99.90
48535;DHT22;34323;52.022;5.686;2023-05-19T05:27:18;13.70;99.90
48535;DHT22;34323;52.022;5.686;2023-05-19T05:29:43;13.80;99.90
48535;DHT22;34323;52.022;5.686;2023-05-19T05:32:09;13.90;99.90
48535;DHT22;34323;52.022;5.686;2023-05-19T05:34:35;14.00;99.90
48535;DHT22;34323;52.022;5.686;2023-05-19T05:37:02;14.00;99.90
48535;DHT22;34323;52.022;5.686;2023-05-19T05:39:28;14.00;99.90
48535;DHT22;34323;52.022;5.686;2023-05-19T05:41:53;14.20;99.90
48535;DHT22;34323;52.022;5.686;2023-05-19T05:44:19;14.10;99.90
48535;DHT22;34323;52.022;5.686;2023-05-19T05:46:44;14.10;99.90
48535;DHT22;34323;52.022;5.686;2023-05-19T05:49:10;14.10;99.90
48535;DHT22;34323;52.022;5.686;2023-05-19T05:51:38;13.90;99.90
48535;DHT22;34323;52.022;5.686;2023-05-19T05:54:05;13.80;99.90
48535;DHT22;34323;52.022;5.686;2023-05-19T05:56:31;13.80;99.90
48535;DHT22;34323;52.022;5.686;2023-05-19T05:58:58;13.90;99.90
48535;DHT22;34323;52.022;5.686;2023-05-19T06:01:24;13.90;99.90
48535;DHT22;34323;52.022;5.686;2023-05-19T06:03:49;13.80;99.90
48535;DHT22;34323;52.022;5.686;2023-05-19T06:06:15;13.70;99.90
48535;DHT22;34323;52.022;5.686;2023-05-19T06:08:40;13.80;99.90
48535;DHT22;34323;52.022;5.686;2023-05-19T06:11:06;13.90;99.90
48535;DHT22;34323;52.022;5.686;2023-05-19T06:13:35;14.10;99.90
48535;DHT22;34323;52.022;5.686;2023-05-19T06:16:01;14.20;99.90
48535;DHT22;34323;52.022;5.686;2023-05-19T06:18:27;14.20;99.90
48535;DHT22;34323;52.022;5.686;2023-05-19T06:20:53;14.20;99.90
48535;DHT22;34323;52.022;5.686;2023-05-19T06:23:19;14.10;99.90
48535;DHT22;34323;52.022;5.686;2023-05-19T06:25:44;14.20;99.90
48535;DHT22;34323;52.022;5.686;2023-05-19T06:28:10;14.20;99.90
48535;DHT22;34323;52.022;5.686;2023-05-19T06:30:36;14.30;99.90
48535;DHT22;34323;52.022;5.686;2023-05-19T06:33:01;14.50;99.90
48535;DHT22;34323;52.022;5.686;2023-05-19T06:35:30;14.50;99.90
48535;DHT22;34323;52.022;5.686;2023-05-19T06:37:56;14.50;99.90
48535;DHT22;34323;52.022;5.686;2023-05-19T06:40:22;14.50;99.90
48535;DHT22;34323;52.022;5.686;2023-05-19T06:42:48;14.70;99.90
48535;DHT22;34323;52.022;5.686;2023-05-19T06:45:13;14.90;99.90
48535;DHT22;34323;52.022;5.686;2023-05-19T06:47:39;15.00;99.90
48535;DHT22;34323;52.022;5.686;2023-05-19T06:50:09;15.20;99.90
48535;DHT22;34323;52.022;5.686;2023-05-19T06:52:34;15.30;99.90
48535;DHT22;34323;52.022;5.686;2023-05-19T06:55:00;15.50;99.90
48535;DHT22;34323;52.022;5.686;2023-05-19T06:57:26;15.50;99.90
48535;DHT22;34323;52.022;5.686;2023-05-19T06:59:51;15.60;99.90
48535;DHT22;34323;52.022;5.686;2023-05-19T07:02:17;15.70;99.90
48535;DHT22;34323;52.022;5.686;2023-05-19T07:04:42;15.80;99.90
48535;DHT22;34323;52.022;5.686;2023-05-19T07:07:08;15.80;99.90
48535;DHT22;34323;52.022;5.686;2023-05-19T07:09:33;16.10;99.90
48535;DHT22;34323;52.022;5.686;2023-05-19T07:11:59;16.20;99.90
48535;DHT22;34323;52.022;5.686;2023-05-19T07:14:25;16.10;99.90
48535;DHT22;34323;52.022;5.686;2023-05-19T07:16:51;16.00;99.90
48535;DHT22;34323;52.022;5.686;2023-05-19T07:19:16;16.20;99.90
48535;DHT22;34323;52.022;5.686;2023-05-19T07:21:45;16.60;99.90
48535;DHT22;34323;52.022;5.686;2023-05-19T07:24:10;16.70;99.90
48535;DHT22;34323;52.022;5.686;2023-05-19T07:26:36;16.90;99.90
48535;DHT22;34323;52.022;5.686;2023-05-19T07:29:01;16.90;99.90
48535;DHT22;34323;52.022;5.686;2023-05-19T07:31:27;17.20;99.90
48535;DHT22;34323;52.022;5.686;2023-05-19T07:33:53;17.20;99.90
48535;DHT22;34323;52.022;5.686;2023-05-19T07:36:18;17.30;99.90
48535;DHT22;34323;52.022;5.686;2023-05-19T07:38:45;17.50;99.90
48535;DHT22;34323;52.022;5.686;2023-05-19T07:41:11;17.50;99.90
48535;DHT22;34323;52.022;5.686;2023-05-19T07:43:36;17.50;99.90
48535;DHT22;34323;52.022;5.686;2023-05-19T07:46:02;17.60;99.90
48535;DHT22;34323;52.022;5.686;2023-05-19T07:48:28;17.60;99.90
48535;DHT22;34323;52.022;5.686;2023-05-19T07:50:54;17.50;99.90
48535;DHT22;34323;52.022;5.686;2023-05-19T07:53:19;17.40;99.90
48535;DHT22;34323;52.022;5.686;2023-05-19T07:55:47;17.30;99.90
48535;DHT22;34323;52.022;5.686;2023-05-19T07:58:13;17.60;99.90
48535;DHT22;34323;52.022;5.686;2023-05-19T08:00:38;17.80;99.90
48535;DHT22;34323;52.022;5.686;2023-05-19T08:03:10;18.00;99.90
48535;DHT22;34323;52.022;5.686;2023-05-19T08:05:36;18.20;99.90
48535;DHT22;34323;52.022;5.686;2023-05-19T08:08:02;18.20;99.90
48535;DHT22;34323;52.022;5.686;2023-05-19T08:10:28;18.60;99.90
48535;DHT22;34323;52.022;5.686;2023-05-19T08:12:53;18.90;99.90
48535;DHT22;34323;52.022;5.686;2023-05-19T08:15:19;19.00;99.90
48535;DHT22;34323;52.022;5.686;2023-05-19T08:17:45;19.00;99.90
48535;DHT22;34323;52.022;5.686;2023-05-19T08:20:11;19.00;99.90
48535;DHT22;34323;52.022;5.686;2023-05-19T08:22:37;19.30;99.90
48535;DHT22;34323;52.022;5.686;2023-05-19T08:25:03;19.30;99.90
48535;DHT22;34323;52.022;5.686;2023-05-19T08:27:29;19.40;99.90
48535;DHT22;34323;52.022;5.686;2023-05-19T08:29:55;19.70;99.90
48535;DHT22;34323;52.022;5.686;2023-05-19T08:32:21;19.90;99.90
48535;DHT22;34323;52.022;5.686;2023-05-19T08:34:47;19.70;99.90
48535;DHT22;34323;52.022;5.686;2023-05-19T08:37:12;20.00;99.90
48535;DHT22;34323;52.022;5.686;2023-05-19T08:39:38;19.80;99.90
48535;DHT22;34323;52.022;5.686;2023-05-19T08:42:04;20.00;99.90
48535;DHT22;34323;52.022;5.686;2023-05-19T08:44:31;20.20;99.90
48535;DHT22;34323;52.022;5.686;2023-05-19T08:46:59;20.10;99.90
48535;DHT22;34323;52.022;5.686;2023-05-19T08:49:26;20.20;99.90
48535;DHT22;34323;52.022;5.686;2023-05-19T08:52:32;20.50;99.90
48535;DHT22;34323;52.022;5.686;2023-05-19T08:55:04;20.50;99.90
48535;DHT22;34323;52.022;5.686;2023-05-19T08:57:32;20.70;99.90
48535;DHT22;34323;52.022;5.686;2023-05-19T08:59:58;21.00;99.90
48535;DHT22;34323;52.022;5.686;2023-05-19T09:02:24;21.40;99.90
48535;DHT22;34323;52.022;5.686;2023-05-19T09:04:50;21.70;99.90
48535;DHT22;34323;52.022;5.686;2023-05-19T09:07:17;21.90;99.90
48535;DHT22;34323;52.022;5.686;2023-05-19T09:09:44;22.00;99.90
48535;DHT22;34323;52.022;5.686;2023-05-19T09:12:10;22.30;99.90
48535;DHT22;34323;52.022;5.686;2023-05-19T09:14:36;22.30;99.90
48535;DHT22;34323;52.022;5.686;2023-05-19T09:17:02;22.20;99.90
48535;DHT22;34323;52.022;5.686;2023-05-19T09:19:28;22.00;99.90
48535;DHT22;34323;52.022;5.686;2023-05-19T09:21:58;22.50;99.90
48535;DHT22;34323;52.022;5.686;2023-05-19T09:24:33;22.60;99.90
48535;DHT22;34323;52.022;5.686;2023-05-19T09:26:58;22.60;99.90
48535;DHT22;34323;52.022;5.686;2023-05-19T09:29:24;22.50;99.30
48535;DHT22;34323;52.022;5.686;2023-05-19T09:31:54;22.50;98.30
48535;DHT22;34323;52.022;5.686;2023-05-19T09:34:20;22.80;98.60
48535;DHT22;34323;52.022;5.686;2023-05-19T09:36:48;22.70;99.80
48535;DHT22;34323;52.022;5.686;2023-05-19T09:39:18;22.60;99.40
48535;DHT22;34323;52.022;5.686;2023-05-19T09:41:44;22.60;99.90
48535;DHT22;34323;52.022;5.686;2023-05-19T09:44:21;22.60;99.10
48535;DHT22;34323;52.022;5.686;2023-05-19T09:46:51;23.10;99.90
48535;DHT22;34323;52.022;5.686;2023-05-19T09:49:22;23.20;99.40
48535;DHT22;34323;52.022;5.686;2023-05-19T09:51:58;23.30;99.10
48535;DHT22;34323;52.022;5.686;2023-05-19T09:54:24;23.20;99.90
48535;DHT22;34323;52.022;5.686;2023-05-19T09:57:02;23.20;99.60
48535;DHT22;34323;52.022;5.686;2023-05-19T09:59:29;23.20;99.90
48535;DHT22;34323;52.022;5.686;2023-05-19T10:01:57;23.20;99.40
48535;DHT22;34323;52.022;5.686;2023-05-19T10:04:24;23.30;99.80
48535;DHT22;34323;52.022;5.686;2023-05-19T10:06:51;23.70;99.60
48535;DHT22;34323;52.022;5.686;2023-05-19T10:09:25;23.80;99.10
48535;DHT22;34323;52.022;5.686;2023-05-19T10:11:52;23.60;97.80
48535;DHT22;34323;52.022;5.686;2023-05-19T10:14:21;23.80;98.20
48535;DHT22;34323;52.022;5.686;2023-05-19T10:16:49;23.70;98.60
48535;DHT22;34323;52.022;5.686;2023-05-19T10:19:15;23.70;98.60
48535;DHT22;34323;52.022;5.686;2023-05-19T10:21:41;23.80;99.20
48535;DHT22;34323;52.022;5.686;2023-05-19T10:24:07;23.90;99.00
48535;DHT22;34323;52.022;5.686;2023-05-19T10:26:34;23.80;98.00
48535;DHT22;34323;52.022;5.686;2023-05-19T10:29:01;24.00;98.40
48535;DHT22;34323;52.022;5.686;2023-05-19T10:31:29;23.90;97.60
48535;DHT22;34323;52.022;5.686;2023-05-19T10:37:15;23.80;99.00
48535;DHT22;34323;52.022;5.686;2023-05-19T10:39:42;24.00;99.10
48535;DHT22;34323;52.022;5.686;2023-05-19T10:45:08;24.70;97.60
48535;DHT22;34323;52.022;5.686;2023-05-19T10:47:34;24.20;98.80
48535;DHT22;34323;52.022;5.686;2023-05-19T10:50:00;23.70;98.90
48535;DHT22;34323;52.022;5.686;2023-05-19T10:52:26;23.60;98.60
48535;DHT22;34323;52.022;5.686;2023-05-19T10:54:54;23.30;99.20
48535;DHT22;34323;52.022;5.686;2023-05-19T10:57:24;23.70;98.20
48535;DHT22;34323;52.022;5.686;2023-05-19T10:59:52;23.80;98.80
48535;DHT22;34323;52.022;5.686;2023-05-19T11:02:41;24.30;99.30
48535;DHT22;34323;52.022;5.686;2023-05-19T11:05:12;24.20;98.20
48535;DHT22;34323;52.022;5.686;2023-05-19T11:07:58;24.10;97.10
48535;DHT22;34323;52.022;5.686;2023-05-19T11:10:35;24.80;98.30
48535;DHT22;34323;52.022;5.686;2023-05-19T11:13:00;25.00;96.30
48535;DHT22;34323;52.022;5.686;2023-05-19T11:15:26;25.30;98.40
48535;DHT22;34323;52.022;5.686;2023-05-19T11:17:52;25.30;96.90
48535;DHT22;34323;52.022;5.686;2023-05-19T11:20:25;25.40;96.80
48535;DHT22;34323;52.022;5.686;2023-05-19T11:23:18;25.20;96.90
48535;DHT22;34323;52.022;5.686;2023-05-19T11:25:46;25.60;98.10
48535;DHT22;34323;52.022;5.686;2023-05-19T11:28:15;24.80;97.00
48535;DHT22;34323;52.022;5.686;2023-05-19T11:30:42;24.40;97.70
48535;DHT22;34323;52.022;5.686;2023-05-19T11:33:08;24.60;97.10
48535;DHT22;34323;52.022;5.686;2023-05-19T11:35:34;24.80;97.90
48535;DHT22;34323;52.022;5.686;2023-05-19T11:38:01;25.20;97.00
48535;DHT22;34323;52.022;5.686;2023-05-19T11:40:28;25.40;97.80
48535;DHT22;34323;52.022;5.686;2023-05-19T11:42:54;25.70;96.40
48535;DHT22;34323;52.022;5.686;2023-05-19T11:45:25;26.00;96.20
48535;DHT22;34323;52.022;5.686;2023-05-19T11:47:54;26.20;96.60
48535;DHT22;34323;52.022;5.686;2023-05-19T11:50:21;26.30;96.60
48535;DHT22;34323;52.022;5.686;2023-05-19T11:52:47;26.50;97.20
48535;DHT22;34323;52.022;5.686;2023-05-19T11:55:19;26.80;95.80
48535;DHT22;34323;52.022;5.686;2023-05-19T12:00:21;26.80;96.10
48535;DHT22;34323;52.022;5.686;2023-05-19T12:02:47;26.70;96.40
48535;DHT22;34323;52.022;5.686;2023-05-19T12:05:23;26.70;97.00
48535;DHT22;34323;52.022;5.686;2023-05-19T12:07:50;26.70;95.60
48535;DHT22;34323;52.022;5.686;2023-05-19T12:10:21;26.80;96.50
48535;DHT22;34323;52.022;5.686;2023-05-19T12:12:47;26.80;96.30
48535;DHT22;34323;52.022;5.686;2023-05-19T12:15:14;27.10;96.30
48535;DHT22;34323;52.022;5.686;2023-05-19T12:17:41;27.20;96.20
48535;DHT22;34323;52.022;5.686;2023-05-19T12:20:07;27.30;96.70
48535;DHT22;34323;52.022;5.686;2023-05-19T12:22:33;27.20;96.60
48535;DHT22;34323;52.022;5.686;2023-05-19T12:24:59;26.90;97.30
48535;DHT22;34323;52.022;5.686;2023-05-19T12:27:26;26.70;95.90
48535;DHT22;34323;52.022;5.686;2023-05-19T12:29:53;26.80;96.40
48535;DHT22;34323;52.022;5.686;2023-05-19T12:32:25;27.00;96.70
48535;DHT22;34323;52.022;5.686;2023-05-19T12:34:52;27.30;96.00
48535;DHT22;34323;52.022;5.686;2023-05-19T12:37:19;27.60;95.30
48535;DHT22;34323;52.022;5.686;2023-05-19T12:39:46;27.70;95.50
48535;DHT22;34323;52.022;5.686;2023-05-19T12:42:12;27.50;95.50
48535;DHT22;34323;52.022;5.686;2023-05-19T12:44:44;27.10;95.70
48535;DHT22;34323;52.022;5.686;2023-05-19T12:47:16;27.10;95.30
48535;DHT22;34323;52.022;5.686;2023-05-19T12:49:55;26.90;96.20
48535;DHT22;34323;52.022;5.686;2023-05-19T12:52:22;26.90;95.50
48535;DHT22;34323;52.022;5.686;2023-05-19T12:54:48;27.00;96.20
48535;DHT22;34323;52.022;5.686;2023-05-19T12:57:18;27.30;95.40
48535;DHT22;34323;52.022;5.686;2023-05-19T12:59:45;27.60;95.60
48535;DHT22;34323;52.022;5.686;2023-05-19T13:02:11;27.90;96.10
48535;DHT22;34323;52.022;5.686;2023-05-19T13:04:37;28.00;94.60
48535;DHT22;34323;52.022;5.686;2023-05-19T13:07:02;27.70;95.10
48535;DHT22;34323;52.022;5.686;2023-05-19T13:09:28;27.70;95.30
48535;DHT22;34323;52.022;5.686;2023-05-19T13:11:54;27.70;95.10
48535;DHT22;34323;52.022;5.686;2023-05-19T13:14:21;27.70;94.20
48535;DHT22;34323;52.022;5.686;2023-05-19T13:16:46;27.60;94.70
48535;DHT22;34323;52.022;5.686;2023-05-19T13:19:17;27.70;95.20
48535;DHT22;34323;52.022;5.686;2023-05-19T13:21:44;28.00;95.10
48535;DHT22;34323;52.022;5.686;2023-05-19T13:24:12;28.60;94.20
48535;DHT22;34323;52.022;5.686;2023-05-19T13:26:37;29.40;95.80
48535;DHT22;34323;52.022;5.686;2023-05-19T13:29:03;30.00;95.20
48535;DHT22;34323;52.022;5.686;2023-05-19T13:31:29;30.20;94.50
48535;DHT22;34323;52.022;5.686;2023-05-19T13:33:55;30.40;94.00
48535;DHT22;34323;52.022;5.686;2023-05-19T13:36:21;31.00;94.10
48535;DHT22;34323;52.022;5.686;2023-05-19T13:38:46;31.60;93.90
48535;DHT22;34323;52.022;5.686;2023-05-19T13:41:12;32.40;94.30
48535;DHT22;34323;52.022;5.686;2023-05-19T13:43:38;32.60;93.50
48535;DHT22;34323;52.022;5.686;2023-05-19T13:46:04;33.20;93.60
48535;DHT22;34323;52.022;5.686;2023-05-19T13:48:30;32.30;93.80
48535;DHT22;34323;52.022;5.686;2023-05-19T13:50:55;31.00;93.70
48535;DHT22;34323;52.022;5.686;2023-05-19T13:53:21;30.20;94.20
48535;DHT22;34323;52.022;5.686;2023-05-19T13:55:47;30.10;93.50
48535;DHT22;34323;52.022;5.686;2023-05-19T13:58:12;30.90;94.20
48535;DHT22;34323;52.022;5.686;2023-05-19T14:00:40;32.20;93.50
48535;DHT22;34323;52.022;5.686;2023-05-19T14:03:05;33.50;93.30
48535;DHT22;34323;52.022;5.686;2023-05-19T14:05:31;33.80;92.20
48535;DHT22;34323;52.022;5.686;2023-05-19T14:07:57;34.40;93.30
48535;DHT22;34323;52.022;5.686;2023-05-19T14:10:24;33.30;92.90
48535;DHT22;34323;52.022;5.686;2023-05-19T14:12:50;33.70;93.90
48535;DHT22;34323;52.022;5.686;2023-05-19T14:15:17;33.50;92.60
48535;DHT22;34323;52.022;5.686;2023-05-19T14:17:43;33.30;92.90
48535;DHT22;34323;52.022;5.686;2023-05-19T14:20:09;32.30;93.20
48535;DHT22;34323;52.022;5.686;2023-05-19T14:22:34;32.80;93.50
48535;DHT22;34323;52.022;5.686;2023-05-19T14:25:01;33.20;92.30
48535;DHT22;34323;52.022;5.686;2023-05-19T14:27:26;32.50;92.00
48535;DHT22;34323;52.022;5.686;2023-05-19T14:29:52;32.00;92.90
48535;DHT22;34323;52.022;5.686;2023-05-19T14:32:17;31.70;93.20
48535;DHT22;34323;52.022;5.686;2023-05-19T14:34:43;31.30;93.10
48535;DHT22;34323;52.022;5.686;2023-05-19T14:37:08;31.10;92.40
48535;DHT22;34323;52.022;5.686;2023-05-19T14:39:34;31.40;93.10
48535;DHT22;34323;52.022;5.686;2023-05-19T14:41:59;32.20;93.30
48535;DHT22;34323;52.022;5.686;2023-05-19T14:44:31;33.60;92.20
48535;DHT22;34323;52.022;5.686;2023-05-19T14:46:58;34.90;93.00
48535;DHT22;34323;52.022;5.686;2023-05-19T14:49:24;35.80;93.10
48535;DHT22;34323;52.022;5.686;2023-05-19T14:51:50;35.40;91.70
48535;DHT22;34323;52.022;5.686;2023-05-19T14:54:15;34.10;91.60
48535;DHT22;34323;52.022;5.686;2023-05-19T14:56:41;34.20;92.40
48535;DHT22;34323;52.022;5.686;2023-05-19T14:59:06;34.70;92.20
48535;DHT22;34323;52.022;5.686;2023-05-19T15:01:32;35.50;92.70
48535;DHT22;34323;52.022;5.686;2023-05-19T15:03:57;35.50;92.40
48535;DHT22;34323;52.022;5.686;2023-05-19T15:06:23;34.80;90.50
48535;DHT22;34323;52.022;5.686;2023-05-19T15:08:48;34.20;92.00
48535;DHT22;34323;52.022;5.686;2023-05-19T15:11:14;34.00;92.50
48535;DHT22;34323;52.022;5.686;2023-05-19T15:13:39;34.00;90.20
48535;DHT22;34323;52.022;5.686;2023-05-19T15:16:05;33.00;91.50
48535;DHT22;34323;52.022;5.686;2023-05-19T15:18:35;32.80;92.00
48535;DHT22;34323;52.022;5.686;2023-05-19T15:21:02;33.00;91.50
48535;DHT22;34323;52.022;5.686;2023-05-19T15:23:27;33.70;91.20
48535;DHT22;34323;52.022;5.686;2023-05-19T15:25:53;34.00;91.40
48535;DHT22;34323;52.022;5.686;2023-05-19T15:28:19;34.20;91.40
48535;DHT22;34323;52.022;5.686;2023-05-19T15:30:44;33.40;91.30
48535;DHT22;34323;52.022;5.686;2023-05-19T15:33:10;32.40;91.70
48535;DHT22;34323;52.022;5.686;2023-05-19T15:35:37;32.10;92.10
48535;DHT22;34323;52.022;5.686;2023-05-19T15:38:02;31.50;91.70
48535;DHT22;34323;52.022;5.686;2023-05-19T15:40:31;30.40;91.80
48535;DHT22;34323;52.022;5.686;2023-05-19T15:42:57;29.70;92.20
48535;DHT22;34323;52.022;5.686;2023-05-19T15:45:23;29.70;92.50
48535;DHT22;34323;52.022;5.686;2023-05-19T15:47:48;29.30;91.40
48535;DHT22;34323;52.022;5.686;2023-05-19T15:50:14;29.10;92.20
48535;DHT22;34323;52.022;5.686;2023-05-19T15:52:39;29.50;92.00
48535;DHT22;34323;52.022;5.686;2023-05-19T15:55:05;29.50;91.70
48535;DHT22;34323;52.022;5.686;2023-05-19T15:57:31;29.60;92.20